Time;durP1;ratioP1;P1;durP2;ratioP2;P2;SDS_P1;SDS_P2;PMS_P1;PMS_P2;Temp;Humidity;BMP_temperature;BMP_pressure;BME280_temperature;BME280_humidity;BME280_pressure;Samples;Min_cycle;Max_cycle;Signal;HPM_P1;HPM_P2
2022/08/11 00:01:10;;;;;;;7.88;4.70;;;;;;;;;;5053967;28;20041;-72
2022/08/11 00:03:47;;;;;;;8.30;5.07;;;;;;;;;;5054239;28;20507;-74
2022/08/11 00:06:15;;;;;;;5.65;3.88;;;;;;;;;;5039181;28;20421;-76
2022/08/11 00:08:48;;;;;;;6.60;4.07;;;;;;;;;;5048434;28;20032;-74
2022/08/11 00:11:15;;;;;;;5.97;3.67;;;;;;;;;;5052917;28;20029;-76
2022/08/11 00:13:45;;;;;;;9.55;3.42;;;;;;;;;;5040567;28;20033;-73
2022/08/11 00:16:16;;;;;;;6.63;3.47;;;;;;;;;;5034048;28;20095;-75
2022/08/11 00:18:48;;;;;;;5.93;3.83;;;;;;;;;;5033325;28;20068;-75
2022/08/11 00:21:15;;;;;;;9.75;4.05;;;;;;;;;;5034276;28;20040;-74
2022/08/11 00:23:45;;;;;;;6.13;3.60;;;;;;;;;;5034224;28;20056;-75
2022/08/11 00:26:13;;;;;;;7.38;3.90;;;;;;;;;;5033688;28;20045;-76
2022/08/11 00:28:40;;;;;;;6.22;3.60;;;;;;;;;;5033944;28;20083;-74
2022/08/11 00:31:10;;;;;;;6.18;3.85;;;;;;;;;;5034402;28;20418;-74
2022/08/11 00:33:39;;;;;;;4.13;3.25;;;;;;;;;;5034122;28;20072;-72
2022/08/11 00:36:07;;;;;;;6.57;3.67;;;;;;;;;;5033944;28;20045;-74
2022/08/11 00:38:38;;;;;;;6.72;3.60;;;;;;;;;;5033859;28;20029;-73
2022/08/11 00:41:10;;;;;;;4.47;3.40;;;;;;;;;;5033481;28;20034;-74
2022/08/11 00:44:14;;;;;;;9.32;3.50;;;;;;;;;;5048133;28;20029;-74
2022/08/11 00:47:13;;;;;;;5.57;3.65;;;;;;;;;;5037000;28;20477;-72
2022/08/11 00:50:01;;;;;;;5.90;3.92;;;;;;;;;;5033646;28;20084;-74
2022/08/11 00:52:45;;;;;;;5.60;3.75;;;;;;;;;;5033687;28;20465;-74
2022/08/11 00:55:29;;;;;;;8.57;5.00;;;;;;;;;;5052693;28;20025;-75
2022/08/11 00:57:55;;;;;;;6.20;3.85;;;;;;;;;;5042682;28;20476;-74
2022/08/11 01:00:24;;;;;;;8.20;4.90;;;;;;;;;;5053465;28;20033;-74
2022/08/11 01:03:32;;;;;;;5.32;3.90;;;;;;;;;;5053426;28;20029;-74
2022/08/11 01:06:51;;;;;;;8.57;3.80;;;;;;;;;;5052811;28;20032;-73
2022/08/11 01:09:41;;;;;;;6.05;3.67;;;;;;;;;;5016560;28;20048;-74
2022/08/11 01:12:28;;;;;;;6.07;4.15;;;;;;;;;;5033303;28;20029;-76
2022/08/11 01:15:19;;;;;;;9.98;4.25;;;;;;;;;;5040307;28;20037;-75
2022/08/11 01:18:22;;;;;;;6.93;3.90;;;;;;;;;;5052881;28;20390;-75
2022/08/11 01:21:11;;;;;;;9.23;3.90;;;;;;;;;;5053041;28;20056;-74
2022/08/11 01:24:04;;;;;;;5.57;3.63;;;;;;;;;;5053080;28;20040;-76
2022/08/11 01:27:07;;;;;;;5.97;3.80;;;;;;;;;;5052669;28;20029;-75
2022/08/11 01:30:04;;;;;;;7.28;3.30;;;;;;;;;;5052723;28;20056;-76
2022/08/11 01:33:00;;;;;;;5.05;3.55;;;;;;;;;;5053007;28;20430;-77
2022/08/11 01:36:04;;;;;;;6.68;3.60;;;;;;;;;;5052316;28;20045;-74
2022/08/11 01:39:01;;;;;;;10.45;3.83;;;;;;;;;;5052692;28;20464;-77
2022/08/11 01:44:41;;;;;;;7.25;3.80;;;;;;;;;;5052581;28;20079;-76
2022/08/11 01:50:30;;;;;;;9.95;4.25;;;;;;;;;;5052322;28;20115;-75
2022/08/11 01:53:07;;;;;;;5.40;4.07;;;;;;;;;;5041038;28;20156;-78
2022/08/11 01:55:44;;;;;;;12.65;4.35;;;;;;;;;;5032233;28;20033;-72
2022/08/11 01:58:56;;;;;;;5.35;4.10;;;;;;;;;;5032062;28;20041;-74
2022/08/11 02:01:39;;;;;;;7.43;3.88;;;;;;;;;;5001722;28;20067;-76
2022/08/11 02:04:14;;;;;;;7.40;4.10;;;;;;;;;;5032118;28;20034;-74
2022/08/11 02:06:53;;;;;;;11.55;4.00;;;;;;;;;;5032337;28;20136;-74
2022/08/11 02:09:46;;;;;;;10.02;4.07;;;;;;;;;;5044959;28;20044;-73
2022/08/11 02:12:25;;;;;;;8.98;4.40;;;;;;;;;;5031808;28;20037;-76
2022/08/11 02:15:33;;;;;;;5.78;4.07;;;;;;;;;;5031627;28;20365;-74
2022/08/11 02:18:07;;;;;;;6.97;3.90;;;;;;;;;;5033245;28;20041;-76
2022/08/11 02:23:58;;;;;;;9.20;4.10;;;;;;;;;;5051274;28;20033;-76
2022/08/11 02:26:39;;;;;;;6.88;4.03;;;;;;;;;;5050716;28;20041;-77
2022/08/11 02:29:22;;;;;;;7.65;4.10;;;;;;;;;;5044451;28;20033;-75
2022/08/11 02:35:13;;;;;;;7.65;4.30;;;;;;;;;;5037279;28;20488;-74
2022/08/11 02:37:49;;;;;;;6.15;3.63;;;;;;;;;;5047593;28;20033;-72
2022/08/11 02:40:37;;;;;;;7.88;3.97;;;;;;;;;;5031432;28;20033;-75
2022/08/11 02:43:03;;;;;;;7.43;4.25;;;;;;;;;;5045270;28;20060;-75
2022/08/11 02:46:09;;;;;;;10.68;4.47;;;;;;;;;;5057329;28;20510;-73
2022/08/11 02:51:53;;;;;;;9.27;4.13;;;;;;;;;;5035387;28;20151;-79
2022/08/11 02:54:55;;;;;;;6.50;3.55;;;;;;;;;;5049243;28;20055;-75
2022/08/11 02:57:30;;;;;;;6.07;4.40;;;;;;;;;;5057797;28;20043;-75
2022/08/11 03:00:06;;;;;;;6.25;4.15;;;;;;;;;;5057586;28;20082;-75
2022/08/11 03:02:55;;;;;;;12.07;4.40;;;;;;;;;;5056920;28;20035;-78
2022/08/11 03:05:25;;;;;;;6.35;4.47;;;;;;;;;;5056723;28;20103;-75
2022/08/11 03:07:57;;;;;;;11.55;4.50;;;;;;;;;;5057455;28;20063;-74
2022/08/11 03:10:39;;;;;;;12.02;4.28;;;;;;;;;;5057577;28;20554;-74
2022/08/11 03:16:45;;;;;;;8.70;4.53;;;;;;;;;;5048183;28;20112;-75
2022/08/11 03:19:17;;;;;;;9.77;4.28;;;;;;;;;;5043411;28;20033;-74
2022/08/11 03:22:04;;;;;;;16.50;4.35;;;;;;;;;;5037993;28;20064;-75
2022/08/11 03:24:48;;;;;;;8.27;4.60;;;;;;;;;;5037871;28;20153;-76
2022/08/11 03:27:20;;;;;;;9.93;4.40;;;;;;;;;;5037720;28;20071;-75
2022/08/11 03:30:01;;;;;;;8.75;4.38;;;;;;;;;;5037423;28;20395;-75
2022/08/11 03:32:34;;;;;;;7.13;4.15;;;;;;;;;;5037750;28;20041;-75
2022/08/11 03:35:02;;;;;;;7.97;4.32;;;;;;;;;;5037405;28;20569;-76
2022/08/11 03:37:54;;;;;;;7.82;4.30;;;;;;;;;;5037892;28;20060;-75
2022/08/11 03:43:45;;;;;;;8.88;5.28;;;;;;;;;;5037531;28;20040;-74
2022/08/11 03:46:43;;;;;;;5.32;4.68;;;;;;;;;;5037848;28;20068;-74
2022/08/11 03:49:37;;;;;;;8.73;4.38;;;;;;;;;;5038305;28;20041;-74
2022/08/11 03:52:30;;;;;;;7.15;4.60;;;;;;;;;;5037787;28;20108;-76
2022/08/11 03:55:11;;;;;;;9.80;4.93;;;;;;;;;;5033206;28;20036;-75
2022/08/11 03:58:09;;;;;;;11.50;5.05;;;;;;;;;;5034008;28;20122;-75
2022/08/11 04:01:06;;;;;;;8.95;4.22;;;;;;;;;;5034513;28;20171;-75
2022/08/11 04:03:56;;;;;;;12.52;5.00;;;;;;;;;;5042007;28;20044;-74
2022/08/11 04:06:34;;;;;;;13.52;4.97;;;;;;;;;;5054013;28;20451;-78
2022/08/11 04:09:34;;;;;;;10.93;4.82;;;;;;;;;;5054158;28;20120;-76
2022/08/11 04:12:45;;;;;;;10.52;5.00;;;;;;;;;;5053847;28;20551;-76
2022/08/11 04:16:01;;;;;;;13.07;4.90;;;;;;;;;;5052609;28;20102;-74
2022/08/11 04:18:46;;;;;;;11.02;5.43;;;;;;;;;;5049827;28;20481;-74
2022/08/11 04:21:38;;;;;;;9.00;4.78;;;;;;;;;;5033699;28;20068;-75
2022/08/11 04:24:45;;;;;;;14.13;5.18;;;;;;;;;;5027577;28;20073;-75
2022/08/11 04:27:48;;;;;;;16.67;5.40;;;;;;;;;;5036280;28;20075;-75
2022/08/11 04:30:51;;;;;;;10.75;4.95;;;;;;;;;;5032699;28;20025;-75
2022/08/11 04:33:58;;;;;;;17.70;5.15;;;;;;;;;;5033777;28;20400;-74
2022/08/11 04:39:57;;;;;;;7.22;4.60;;;;;;;;;;5054437;28;20037;-74
2022/08/11 04:43:19;;;;;;;7.70;4.32;;;;;;;;;;5053189;28;20056;-74
2022/08/11 04:46:01;;;;;;;7.35;4.32;;;;;;;;;;5051779;28;20045;-75
2022/08/11 05:01:41;;;;;;;16.98;4.53;;;;;;;;;;5036891;28;20056;-74
2022/08/11 05:07:33;;;;;;;10.35;4.53;;;;;;;;;;5036739;28;20068;-76
2022/08/11 05:10:20;;;;;;;12.02;4.75;;;;;;;;;;5033971;28;20053;-77
2022/08/11 05:12:54;;;;;;;13.05;4.70;;;;;;;;;;5050394;28;20039;-74
2022/08/11 05:35:59;;;;;;;6.72;3.85;;;;;;;;;;5051996;28;20048;-74
2022/08/11 05:58:00;;;;;;;5.80;3.25;;;;;;;;;;5052776;28;20108;-76
2022/08/11 06:00:26;;;;;;;7.70;3.92;;;;;;;;;;5052566;28;20049;-75
2022/08/11 06:02:56;;;;;;;7.93;3.88;;;;;;;;;;5052813;28;20041;-76
2022/08/11 06:05:32;;;;;;;10.88;4.65;;;;;;;;;;5050991;28;20040;-74
2022/08/11 06:07:59;;;;;;;4.60;3.58;;;;;;;;;;5052886;28;20052;-73
2022/08/11 06:10:34;;;;;;;5.30;3.60;;;;;;;;;;5052426;28;20039;-74
2022/08/11 06:13:03;;;;;;;7.57;4.03;;;;;;;;;;5036652;28;20040;-74
2022/08/11 06:15:32;;;;;;;6.18;3.42;;;;;;;;;;5032120;28;20417;-74
2022/08/11 06:18:00;;;;;;;6.47;4.20;;;;;;;;;;5036917;28;20040;-75
2022/08/11 06:20:31;;;;;;;6.07;3.33;;;;;;;;;;5037847;28;20116;-76
2022/08/11 06:23:06;;;;;;;6.50;3.60;;;;;;;;;;5044371;28;20548;-80
2022/08/11 06:25:34;;;;;;;9.88;3.78;;;;;;;;;;5052862;28;20029;-77
2022/08/11 06:28:04;;;;;;;6.18;3.63;;;;;;;;;;5044226;28;20045;-74
2022/08/11 06:30:39;;;;;;;5.57;3.55;;;;;;;;;;5043614;28;20071;-76
2022/08/11 06:33:12;;;;;;;4.63;3.55;;;;;;;;;;5037497;28;20044;-75
2022/08/11 06:35:56;;;;;;;8.93;4.70;;;;;;;;;;5032065;28;20052;-74
2022/08/11 06:38:52;;;;;;;7.57;3.90;;;;;;;;;;5032164;28;20045;-74
2022/08/11 06:41:50;;;;;;;6.50;4.10;;;;;;;;;;5032324;28;20037;-79
2022/08/11 06:44:38;;;;;;;11.35;4.00;;;;;;;;;;5031916;28;20037;-75
2022/08/11 06:47:08;;;;;;;3.83;3.28;;;;;;;;;;5031546;28;20039;-75
2022/08/11 06:52:32;;;;;;;6.18;3.88;;;;;;;;;;5031428;28;20025;-77
2022/08/11 06:55:05;;;;;;;6.65;3.60;;;;;;;;;;5031852;28;20099;-74
2022/08/11 07:00:32;;;;;;;9.20;3.72;;;;;;;;;;5018771;28;20062;-74
2022/08/11 07:03:00;;;;;;;8.82;3.58;;;;;;;;;;5031545;28;20084;-75
2022/08/11 07:05:42;;;;;;;10.93;4.78;;;;;;;;;;5032137;28;20107;-70
2022/08/11 07:15:41;;;;;;;8.52;3.88;;;;;;;;;;5036516;28;20040;-72
2022/08/11 07:29:31;;;;;;;6.90;4.05;;;;;;;;;;5034648;28;20034;-73
2022/08/11 07:32:02;;;;;;;8.35;4.45;;;;;;;;;;5036910;28;20026;-71
2022/08/11 07:34:35;;;;;;;7.57;4.53;;;;;;;;;;5055368;28;20480;-72
2022/08/11 07:37:09;;;;;;;7.50;3.58;;;;;;;;;;5052740;28;20041;-73
2022/08/11 07:39:37;;;;;;;6.72;4.07;;;;;;;;;;5049919;28;20065;-72
2022/08/11 07:42:10;;;;;;;8.43;4.30;;;;;;;;;;5049048;28;20125;-71
2022/08/11 07:52:58;;;;;;;5.18;4.32;;;;;;;;;;5054987;28;20120;-73
2022/08/11 07:55:26;;;;;;;8.55;4.18;;;;;;;;;;5054329;28;20033;-73
2022/08/11 08:17:51;;;;;;;6.60;4.70;;;;;;;;;;5053995;28;20091;-71
2022/08/11 08:20:42;;;;;;;5.95;4.40;;;;;;;;;;5051415;28;20030;-72
2022/08/11 08:23:08;;;;;;;7.97;4.45;;;;;;;;;;5050081;28;20547;-72
2022/08/11 08:25:39;;;;;;;10.45;4.95;;;;;;;;;;5053905;28;20037;-72
2022/08/11 08:28:08;;;;;;;5.55;4.40;;;;;;;;;;5054084;28;20159;-72
2022/08/11 08:30:46;;;;;;;8.27;4.70;;;;;;;;;;5054140;28;20025;-72
2022/08/11 08:33:25;;;;;;;7.00;4.47;;;;;;;;;;5053365;28;20503;-72
2022/08/11 08:36:13;;;;;;;5.78;4.50;;;;;;;;;;5053554;28;20437;-73
2022/08/11 08:38:52;;;;;;;8.90;5.30;;;;;;;;;;5053901;28;20070;-72
2022/08/11 08:41:28;;;;;;;7.10;4.60;;;;;;;;;;5053348;28;20060;-72
2022/08/11 08:44:21;;;;;;;6.18;4.50;;;;;;;;;;5052516;28;20040;-72
2022/08/11 08:46:52;;;;;;;8.15;4.90;;;;;;;;;;5053533;28;20090;-72
2022/08/11 08:49:26;;;;;;;6.32;5.03;;;;;;;;;;5052715;28;20024;-72
2022/08/11 08:51:55;;;;;;;6.82;5.65;;;;;;;;;;5034593;28;20492;-72
2022/08/11 08:54:36;;;;;;;7.47;4.95;;;;;;;;;;5033777;28;20417;-72
2022/08/11 08:57:06;;;;;;;5.35;4.50;;;;;;;;;;5037460;28;20484;-72
2022/08/11 08:59:40;;;;;;;15.88;5.43;;;;;;;;;;5053434;28;20055;-72
2022/08/11 09:02:11;;;;;;;7.72;5.00;;;;;;;;;;5053404;28;20035;-73
2022/08/11 09:04:39;;;;;;;7.63;5.03;;;;;;;;;;5053617;28;20040;-72
2022/08/11 09:07:11;;;;;;;7.35;4.63;;;;;;;;;;5053217;28;20726;-73
2022/08/11 09:09:42;;;;;;;6.55;4.97;;;;;;;;;;5053092;28;20045;-71
2022/08/11 09:12:10;;;;;;;8.55;4.68;;;;;;;;;;5042059;28;20036;-72
2022/08/11 09:17:44;;;;;;;7.35;4.90;;;;;;;;;;5035625;28;20473;-71
2022/08/11 09:20:14;;;;;;;6.72;4.68;;;;;;;;;;5044203;28;20040;-71
2022/08/11 09:28:16;;;;;;;6.05;4.50;;;;;;;;;;5047803;28;20041;-72
2022/08/11 09:30:52;;;;;;;7.82;4.55;;;;;;;;;;5051578;28;20386;-72
2022/08/11 09:33:18;;;;;;;6.53;4.90;;;;;;;;;;5042660;28;20037;-72
2022/08/11 09:35:47;;;;;;;7.55;5.05;;;;;;;;;;5051097;28;20033;-71
2022/08/11 09:41:04;;;;;;;7.90;4.90;;;;;;;;;;5051635;28;20094;-70
2022/08/11 09:46:21;;;;;;;8.20;5.07;;;;;;;;;;5050897;28;20037;-72
2022/08/11 09:48:48;;;;;;;8.55;5.10;;;;;;;;;;5038730;28;20031;-74
2022/08/11 09:51:15;;;;;;;6.55;5.63;;;;;;;;;;5031991;28;20033;-73
2022/08/11 09:53:44;;;;;;;6.72;5.13;;;;;;;;;;5048271;28;20037;-69
2022/08/11 09:59:04;;;;;;;9.05;4.65;;;;;;;;;;5052002;28;20064;-71
2022/08/11 10:01:39;;;;;;;7.80;5.88;;;;;;;;;;5049602;28;20051;-72
2022/08/11 10:04:21;;;;;;;6.35;4.72;;;;;;;;;;5050500;28;20025;-71
2022/08/11 10:07:05;;;;;;;6.82;4.88;;;;;;;;;;5051645;28;20056;-71
2022/08/11 10:09:51;;;;;;;6.82;4.70;;;;;;;;;;5050927;28;20035;-71
2022/08/11 10:12:23;;;;;;;5.38;4.50;;;;;;;;;;5050870;28;20029;-70
2022/08/11 10:20:37;;;;;;;7.65;4.90;;;;;;;;;;5051110;28;20456;-72
2022/08/11 10:28:35;;;;;;;9.43;4.75;;;;;;;;;;5038252;28;20394;-70
2022/08/11 10:34:04;;;;;;;6.82;4.50;;;;;;;;;;5030525;28;20055;-72
2022/08/11 10:36:49;;;;;;;8.77;4.75;;;;;;;;;;5034834;28;20041;-72
2022/08/11 10:39:19;;;;;;;5.50;4.63;;;;;;;;;;5051147;28;20108;-71
2022/08/11 10:44:37;;;;;;;9.23;4.40;;;;;;;;;;5051025;28;20057;-74
2022/08/11 10:51:11;;;;;;;5.88;4.38;;;;;;;;;;5050296;28;19920;-71
2022/08/11 11:00:58;;;;;;;9.57;4.85;;;;;;;;;;5031764;28;20099;-71
2022/08/11 11:03:29;;;;;;;7.82;4.93;;;;;;;;;;5039784;28;20037;-72
2022/08/11 11:06:32;;;;;;;9.00;4.80;;;;;;;;;;5034019;28;20079;-73
2022/08/11 11:09:01;;;;;;;;;;;;;;;;;;5034131;28;20041;-72
2022/08/11 11:19:58;;;;;;;9.60;4.43;;;;;;;;;;5053694;28;20091;-73
2022/08/11 11:22:37;;;;;;;6.72;4.60;;;;;;;;;;5055555;28;20116;-74
2022/08/11 11:25:17;;;;;;;7.90;4.78;;;;;;;;;;5054435;28;20112;-72
2022/08/11 11:27:58;;;;;;;6.88;4.78;;;;;;;;;;5054624;28;20087;-72
2022/08/11 11:30:34;;;;;;;5.63;4.57;;;;;;;;;;5055936;28;20037;-72
2022/08/11 11:33:23;;;;;;;7.18;4.60;;;;;;;;;;5055847;28;20033;-72
2022/08/11 11:35:59;;;;;;;6.60;4.70;;;;;;;;;;5055410;28;20037;-72
2022/08/11 11:38:26;;;;;;;6.53;4.50;;;;;;;;;;5055507;28;20037;-73
2022/08/11 11:41:23;;;;;;;8.32;4.78;;;;;;;;;;5055544;28;20049;-72
2022/08/11 11:43:38;;;;;;;9.98;4.55;;;;;;;;;;5055544;28;20033;-73
2022/08/11 11:46:06;;;;;;;5.55;4.72;;;;;;;;;;5051365;28;20033;-72
2022/08/11 11:48:34;;;;;;;7.95;4.50;;;;;;;;;;5054049;28;20136;-72
2022/08/11 11:51:00;;;;;;;5.30;4.40;;;;;;;;;;5054260;28;20064;-71
2022/08/11 11:53:27;;;;;;;4.97;4.22;;;;;;;;;;5052861;28;20044;-71
2022/08/11 11:55:52;;;;;;;6.28;4.25;;;;;;;;;;5053811;28;20111;-72
2022/08/11 12:01:18;;;;;;;7.07;4.85;;;;;;;;;;5054240;28;20029;-71
2022/08/11 12:03:48;;;;;;;4.50;4.10;;;;;;;;;;5037140;28;20037;-72
2022/08/11 12:06:16;;;;;;;6.45;4.75;;;;;;;;;;5034063;28;20067;-70
2022/08/11 12:08:43;;;;;;;6.88;4.60;;;;;;;;;;5034811;28;20118;-72
2022/08/11 12:13:59;;;;;;;8.43;4.68;;;;;;;;;;5053422;28;20036;-72
2022/08/11 12:16:26;;;;;;;14.57;4.70;;;;;;;;;;5051761;28;20052;-72
2022/08/11 12:18:57;;;;;;;10.93;4.30;;;;;;;;;;5053894;28;20037;-71
2022/08/11 12:21:24;;;;;;;9.63;4.40;;;;;;;;;;5054011;28;20056;-72
2022/08/11 12:29:27;;;;;;;6.63;4.13;;;;;;;;;;5053327;28;20059;-72
2022/08/11 12:31:57;;;;;;;7.20;4.45;;;;;;;;;;5052736;28;20388;-71
2022/08/11 12:34:26;;;;;;;8.82;4.35;;;;;;;;;;5039307;28;20042;-72
2022/08/11 12:36:57;;;;;;;9.57;4.50;;;;;;;;;;5033782;28;20037;-72
2022/08/11 12:53:28;;;;;;;8.82;4.32;;;;;;;;;;5033434;28;20041;-73
2022/08/11 12:58:43;;;;;;;7.63;4.47;;;;;;;;;;5033129;28;20069;-72
2022/08/11 13:06:41;;;;;;;6.63;4.50;;;;;;;;;;5032158;28;20495;-73
2022/08/11 13:09:10;;;;;;;6.65;4.45;;;;;;;;;;5032228;28;20033;-73
2022/08/11 13:14:23;;;;;;;7.35;4.47;;;;;;;;;;5033905;28;20132;-72
2022/08/11 13:19:35;;;;;;;6.18;4.68;;;;;;;;;;5033964;28;20224;-71
2022/08/11 13:22:04;;;;;;;8.38;4.20;;;;;;;;;;5032533;28;20120;-72
2022/08/11 13:24:33;;;;;;;8.98;4.50;;;;;;;;;;5033985;28;20034;-73
2022/08/11 13:26:59;;;;;;;6.65;4.80;;;;;;;;;;5033549;28;20033;-70
2022/08/11 13:29:27;;;;;;;5.55;4.25;;;;;;;;;;5033888;28;20395;-72
2022/08/11 13:31:57;;;;;;;5.78;4.45;;;;;;;;;;5033725;28;20037;-72
2022/08/11 13:34:25;;;;;;;5.28;4.47;;;;;;;;;;5033585;28;20045;-72
2022/08/11 13:36:58;;;;;;;5.88;4.60;;;;;;;;;;5033697;28;20116;-73
2022/08/11 13:39:28;;;;;;;7.57;4.43;;;;;;;;;;5033540;28;20041;-72
2022/08/11 13:41:56;;;;;;;7.93;4.47;;;;;;;;;;5033548;28;20114;-72
2022/08/11 13:44:25;;;;;;;8.75;4.03;;;;;;;;;;5033482;28;20029;-72
2022/08/11 13:47:02;;;;;;;8.18;4.40;;;;;;;;;;5033557;28;20033;-73
2022/08/11 13:49:30;;;;;;;8.88;4.40;;;;;;;;;;5033530;28;20034;-72
2022/08/11 13:51:57;;;;;;;5.22;4.03;;;;;;;;;;5033390;28;20045;-72
2022/08/11 13:54:29;;;;;;;11.18;4.22;;;;;;;;;;5033299;28;20091;-73
2022/08/11 13:56:59;;;;;;;6.25;4.43;;;;;;;;;;5033179;28;20048;-73
2022/08/11 13:59:26;;;;;;;6.88;4.75;;;;;;;;;;5032705;28;20112;-73
2022/08/11 14:01:55;;;;;;;4.95;4.13;;;;;;;;;;5032785;28;20168;-74
2022/08/11 14:04:32;;;;;;;7.60;4.25;;;;;;;;;;5032807;28;20040;-74
2022/08/11 14:07:05;;;;;;;6.03;4.53;;;;;;;;;;5033332;28;20029;-72
2022/08/11 14:09:40;;;;;;;5.88;4.35;;;;;;;;;;5033264;28;20369;-74
2022/08/11 14:15:09;;;;;;;6.30;4.30;;;;;;;;;;5033068;28;20373;-73
2022/08/11 14:17:39;;;;;;;5.32;4.45;;;;;;;;;;5032860;28;20061;-72
2022/08/11 14:20:08;;;;;;;6.63;4.53;;;;;;;;;;5032903;28;20033;-72
2022/08/11 14:22:37;;;;;;;5.85;4.82;;;;;;;;;;5033035;28;20033;-71
2022/08/11 14:25:03;;;;;;;6.25;4.13;;;;;;;;;;5032891;28;20088;-72
2022/08/11 14:27:29;;;;;;;4.40;3.95;;;;;;;;;;5032933;28;20033;-73
2022/08/11 14:29:57;;;;;;;6.82;4.45;;;;;;;;;;5033039;28;20060;-71
2022/08/11 14:32:23;;;;;;;6.15;4.57;;;;;;;;;;5032731;28;20036;-72
2022/08/11 14:34:50;;;;;;;6.57;4.38;;;;;;;;;;5032484;28;20061;-71
2022/08/11 14:37:21;;;;;;;4.57;4.18;;;;;;;;;;5031140;28;20399;-73
2022/08/11 14:39:55;;;;;;;6.82;4.57;;;;;;;;;;5032469;28;20083;-73
2022/08/11 14:48:00;;;;;;;8.50;4.80;;;;;;;;;;5032961;28;20423;-73
2022/08/11 14:50:28;;;;;;;6.30;4.65;;;;;;;;;;5032600;28;20489;-73
2022/08/11 14:53:03;;;;;;;5.75;4.20;;;;;;;;;;5032515;28;20044;-73
2022/08/11 14:58:25;;;;;;;9.75;4.60;;;;;;;;;;5032518;28;20495;-72
2022/08/11 15:00:55;;;;;;;5.78;4.57;;;;;;;;;;5032529;28;20056;-72
2022/08/11 15:03:22;;;;;;;9.93;4.53;;;;;;;;;;5032377;28;20488;-73
2022/08/11 15:05:55;;;;;;;5.72;4.35;;;;;;;;;;5032287;28;20036;-74
2022/08/11 15:08:53;;;;;;;;;;;;;;;;;;5032881;28;20029;-74
2022/08/11 15:14:04;;;;;;;6.53;4.22;;;;;;;;;;5022127;28;20076;-74
2022/08/11 15:19:19;;;;;;;9.48;4.68;;;;;;;;;;5032283;28;20029;-74
2022/08/11 15:24:34;;;;;;;11.15;5.28;;;;;;;;;;5032303;28;20030;-74
2022/08/11 15:38:14;;;;;;;8.95;5.03;;;;;;;;;;5032145;28;20485;-74
2022/08/11 15:46:37;;;;;;;8.88;5.07;;;;;;;;;;5032148;28;20120;-73
2022/08/11 15:49:10;;;;;;;8.73;5.28;;;;;;;;;;5032637;28;20503;-73
2022/08/11 15:51:59;;;;;;;9.40;5.18;;;;;;;;;;5035699;28;20060;-73
2022/08/11 15:54:29;;;;;;;8.63;5.85;;;;;;;;;;5035553;28;20033;-73
2022/08/11 15:56:57;;;;;;;11.27;5.70;;;;;;;;;;5035451;28;20029;-74
2022/08/11 16:05:03;;;;;;;13.25;5.55;;;;;;;;;;5035449;28;20075;-73
2022/08/11 16:07:33;;;;;;;9.38;5.40;;;;;;;;;;5035424;28;20033;-73
2022/08/11 16:10:06;;;;;;;9.18;5.85;;;;;;;;;;5035156;28;20030;-74
2022/08/11 16:18:52;;;;;;;7.60;5.30;;;;;;;;;;5035134;28;20108;-73
2022/08/11 16:21:24;;;;;;;10.10;5.35;;;;;;;;;;5034754;28;20511;-73
2022/08/11 16:23:52;;;;;;;7.13;5.05;;;;;;;;;;5034873;28;20025;-73
2022/08/11 16:26:22;;;;;;;7.97;5.68;;;;;;;;;;5034971;28;20072;-72
2022/08/11 16:29:00;;;;;;;9.90;5.22;;;;;;;;;;5034984;28;20333;-71
2022/08/11 16:31:27;;;;;;;8.23;5.28;;;;;;;;;;5034853;28;20112;-72
2022/08/11 16:33:54;;;;;;;7.40;5.40;;;;;;;;;;5034540;28;20050;-72
2022/08/11 16:39:11;;;;;;;8.18;5.45;;;;;;;;;;5034359;28;20033;-73
2022/08/11 16:47:15;;;;;;;10.45;5.95;;;;;;;;;;5034616;28;20052;-75
2022/08/11 16:49:48;;;;;;;17.02;7.10;;;;;;;;;;5042273;28;20032;-73
2022/08/11 16:52:15;;;;;;;13.85;7.07;;;;;;;;;;5037294;28;20477;-72
2022/08/11 16:54:42;;;;;;;12.10;6.35;;;;;;;;;;5033545;28;20025;-73
2022/08/11 17:00:03;;;;;;;9.63;6.28;;;;;;;;;;5047389;28;20138;-73
2022/08/11 17:13:54;;;;;;;15.85;6.90;;;;;;;;;;5033014;28;20418;-73
2022/08/11 17:16:26;;;;;;;9.85;7.30;;;;;;;;;;5034922;28;20029;-73
2022/08/11 17:19:07;;;;;;;14.88;7.78;;;;;;;;;;5031995;28;20041;-74
2022/08/11 17:24:30;;;;;;;10.00;7.57;;;;;;;;;;5031909;28;20071;-74
2022/08/11 17:26:57;;;;;;;10.13;6.75;;;;;;;;;;5033250;28;20056;-74
2022/08/11 17:29:33;;;;;;;10.65;6.32;;;;;;;;;;5047277;28;20036;-73
2022/08/11 17:38:20;;;;;;;14.88;6.68;;;;;;;;;;4973729;28;20557;-71
2022/08/11 17:49:10;;;;;;;16.77;7.85;;;;;;;;;;5044449;28;20033;-72
2022/08/11 17:59:56;;;;;;;13.32;6.38;;;;;;;;;;5047378;28;20041;-73
2022/08/11 18:05:17;;;;;;;10.88;6.57;;;;;;;;;;5031143;28;20095;-72
